sensor_id;sensor_type;location;lat;lon;timestamp;temperature;humidity
2999;DHT22;1509;51.964;7.628;2022-09-23T00:00:43;12.00;99.90
2999;DHT22;1509;51.964;7.628;2022-09-23T00:03:10;12.00;99.90
2999;DHT22;1509;51.964;7.628;2022-09-23T00:05:36;11.90;99.90
2999;DHT22;1509;51.964;7.628;2022-09-23T00:08:06;11.80;99.90
2999;DHT22;1509;51.964;7.628;2022-09-23T00:10:36;11.90;99.90
2999;DHT22;1509;51.964;7.628;2022-09-23T00:13:03;11.90;99.90
2999;DHT22;1509;51.964;7.628;2022-09-23T00:15:28;11.80;99.90
2999;DHT22;1509;51.964;7.628;2022-09-23T00:17:56;11.80;99.90
2999;DHT22;1509;51.964;7.628;2022-09-23T00:20:21;11.90;99.90
2999;DHT22;1509;51.964;7.628;2022-09-23T00:22:47;11.90;99.90
2999;DHT22;1509;51.964;7.628;2022-09-23T00:25:12;11.80;99.90
2999;DHT22;1509;51.964;7.628;2022-09-23T00:27:38;11.80;99.90
2999;DHT22;1509;51.964;7.628;2022-09-23T00:30:06;11.70;99.90
2999;DHT22;1509;51.964;7.628;2022-09-23T00:32:33;11.70;99.90
2999;DHT22;1509;51.964;7.628;2022-09-23T00:34:59;11.70;99.90
2999;DHT22;1509;51.964;7.628;2022-09-23T00:37:24;11.80;99.90
2999;DHT22;1509;51.964;7.628;2022-09-23T00:39:50;11.70;99.90
2999;DHT22;1509;51.964;7.628;2022-09-23T00:42:18;11.70;99.90
2999;DHT22;1509;51.964;7.628;2022-09-23T00:44:46;11.70;99.90
2999;DHT22;1509;51.964;7.628;2022-09-23T00:50:23;11.70;99.90
2999;DHT22;1509;51.964;7.628;2022-09-23T00:52:51;11.70;99.90
2999;DHT22;1509;51.964;7.628;2022-09-23T00:55:23;11.60;99.90
2999;DHT22;1509;51.964;7.628;2022-09-23T00:57:55;11.60;99.90
2999;DHT22;1509;51.964;7.628;2022-09-23T01:00:22;11.60;99.90
2999;DHT22;1509;51.964;7.628;2022-09-23T01:02:48;11.70;99.90
2999;DHT22;1509;51.964;7.628;2022-09-23T01:05:15;11.70;99.90
2999;DHT22;1509;51.964;7.628;2022-09-23T01:07:42;11.70;99.90
2999;DHT22;1509;51.964;7.628;2022-09-23T01:10:08;11.60;99.90
2999;DHT22;1509;51.964;7.628;2022-09-23T01:31:49;11.60;99.90
2999;DHT22;1509;51.964;7.628;2022-09-23T01:37:16;11.60;99.90
2999;DHT22;1509;51.964;7.628;2022-09-23T01:42:29;11.50;99.90
2999;DHT22;1509;51.964;7.628;2022-09-23T01:44:59;11.50;99.90
2999;DHT22;1509;51.964;7.628;2022-09-23T01:47:32;11.50;99.90
2999;DHT22;1509;51.964;7.628;2022-09-23T01:50:07;11.40;99.90
2999;DHT22;1509;51.964;7.628;2022-09-23T01:52:57;11.30;99.90
2999;DHT22;1509;51.964;7.628;2022-09-23T01:55:28;11.30;99.90
2999;DHT22;1509;51.964;7.628;2022-09-23T01:58:29;11.20;99.90
2999;DHT22;1509;51.964;7.628;2022-09-23T02:01:17;11.20;99.90
2999;DHT22;1509;51.964;7.628;2022-09-23T02:03:50;11.10;99.90
2999;DHT22;1509;51.964;7.628;2022-09-23T02:06:25;11.10;99.90
2999;DHT22;1509;51.964;7.628;2022-09-23T02:08:58;11.00;99.90
2999;DHT22;1509;51.964;7.628;2022-09-23T02:11:25;11.00;99.90
2999;DHT22;1509;51.964;7.628;2022-09-23T02:13:57;11.00;99.90
2999;DHT22;1509;51.964;7.628;2022-09-23T02:16:27;11.00;99.90
2999;DHT22;1509;51.964;7.628;2022-09-23T02:22:19;10.90;99.90
2999;DHT22;1509;51.964;7.628;2022-09-23T02:24:47;10.80;99.90
2999;DHT22;1509;51.964;7.628;2022-09-23T02:30:06;10.80;99.90
2999;DHT22;1509;51.964;7.628;2022-09-23T02:33:03;10.80;99.90
2999;DHT22;1509;51.964;7.628;2022-09-23T02:35:38;10.80;99.90
2999;DHT22;1509;51.964;7.628;2022-09-23T02:38:32;10.80;99.90
2999;DHT22;1509;51.964;7.628;2022-09-23T02:44:00;10.80;99.90
2999;DHT22;1509;51.964;7.628;2022-09-23T02:46:28;10.80;99.90
2999;DHT22;1509;51.964;7.628;2022-09-23T02:49:09;10.80;99.90
2999;DHT22;1509;51.964;7.628;2022-09-23T02:51:36;10.80;99.90
2999;DHT22;1509;51.964;7.628;2022-09-23T02:54:04;10.80;99.90
2999;DHT22;1509;51.964;7.628;2022-09-23T02:56:32;10.80;99.90
2999;DHT22;1509;51.964;7.628;2022-09-23T02:58:58;10.80;99.90
2999;DHT22;1509;51.964;7.628;2022-09-23T03:04:22;10.80;99.90
2999;DHT22;1509;51.964;7.628;2022-09-23T03:07:27;10.70;99.90
2999;DHT22;1509;51.964;7.628;2022-09-23T03:10:06;10.70;99.90
2999;DHT22;1509;51.964;7.628;2022-09-23T03:18:11;10.70;99.90
2999;DHT22;1509;51.964;7.628;2022-09-23T03:20:57;10.70;99.90
2999;DHT22;1509;51.964;7.628;2022-09-23T03:23:32;10.60;99.90
2999;DHT22;1509;51.964;7.628;2022-09-23T03:26:08;10.60;99.90
2999;DHT22;1509;51.964;7.628;2022-09-23T03:28:35;10.60;99.90
2999;DHT22;1509;51.964;7.628;2022-09-23T03:31:02;10.50;99.90
2999;DHT22;1509;51.964;7.628;2022-09-23T03:33:29;10.30;99.90
2999;DHT22;1509;51.964;7.628;2022-09-23T03:36:01;10.30;99.90
2999;DHT22;1509;51.964;7.628;2022-09-23T03:38:48;10.20;99.90
2999;DHT22;1509;51.964;7.628;2022-09-23T03:41:24;10.10;99.90
2999;DHT22;1509;51.964;7.628;2022-09-23T03:43:54;10.10;99.90
2999;DHT22;1509;51.964;7.628;2022-09-23T03:46:24;10.20;99.90
2999;DHT22;1509;51.964;7.628;2022-09-23T03:48:51;10.20;99.90
2999;DHT22;1509;51.964;7.628;2022-09-23T03:51:21;10.20;99.90
2999;DHT22;1509;51.964;7.628;2022-09-23T03:53:48;10.10;99.90
2999;DHT22;1509;51.964;7.628;2022-09-23T03:56:14;10.20;99.90
2999;DHT22;1509;51.964;7.628;2022-09-23T03:58:40;10.20;99.90
2999;DHT22;1509;51.964;7.628;2022-09-23T04:01:06;10.20;99.90
2999;DHT22;1509;51.964;7.628;2022-09-23T04:03:32;10.10;99.90
2999;DHT22;1509;51.964;7.628;2022-09-23T04:05:57;10.00;99.90
2999;DHT22;1509;51.964;7.628;2022-09-23T04:08:23;10.10;99.90
2999;DHT22;1509;51.964;7.628;2022-09-23T04:10:48;10.10;99.90
2999;DHT22;1509;51.964;7.628;2022-09-23T04:13:14;10.00;99.90
2999;DHT22;1509;51.964;7.628;2022-09-23T04:15:40;10.00;99.90
2999;DHT22;1509;51.964;7.628;2022-09-23T04:18:06;10.00;99.90
2999;DHT22;1509;51.964;7.628;2022-09-23T04:20:31;10.00;99.90
2999;DHT22;1509;51.964;7.628;2022-09-23T04:22:57;10.00;99.90
2999;DHT22;1509;51.964;7.628;2022-09-23T04:25:22;10.00;99.90
2999;DHT22;1509;51.964;7.628;2022-09-23T04:27:48;10.00;99.90
2999;DHT22;1509;51.964;7.628;2022-09-23T04:30:14;9.90;99.90
2999;DHT22;1509;51.964;7.628;2022-09-23T04:32:39;9.90;99.90
2999;DHT22;1509;51.964;7.628;2022-09-23T04:35:06;9.90;99.90
2999;DHT22;1509;51.964;7.628;2022-09-23T04:37:32;9.90;99.90
2999;DHT22;1509;51.964;7.628;2022-09-23T04:39:57;9.90;99.90
2999;DHT22;1509;51.964;7.628;2022-09-23T04:42:23;9.90;99.90
2999;DHT22;1509;51.964;7.628;2022-09-23T04:44:49;9.80;99.90
2999;DHT22;1509;51.964;7.628;2022-09-23T04:47:14;9.80;99.90
2999;DHT22;1509;51.964;7.628;2022-09-23T04:49:40;9.80;99.90
2999;DHT22;1509;51.964;7.628;2022-09-23T04:52:06;9.80;99.90
2999;DHT22;1509;51.964;7.628;2022-09-23T04:54:32;9.80;99.90
2999;DHT22;1509;51.964;7.628;2022-09-23T04:56:57;9.80;99.90
2999;DHT22;1509;51.964;7.628;2022-09-23T04:59:23;9.80;99.90
2999;DHT22;1509;51.964;7.628;2022-09-23T05:01:49;9.70;99.90
2999;DHT22;1509;51.964;7.628;2022-09-23T05:04:16;9.70;99.90
2999;DHT22;1509;51.964;7.628;2022-09-23T05:06:42;9.70;99.90
2999;DHT22;1509;51.964;7.628;2022-09-23T05:09:15;9.70;99.90
2999;DHT22;1509;51.964;7.628;2022-09-23T05:11:42;9.70;99.90
2999;DHT22;1509;51.964;7.628;2022-09-23T05:14:07;9.60;99.90
2999;DHT22;1509;51.964;7.628;2022-09-23T05:16:33;9.60;99.90
2999;DHT22;1509;51.964;7.628;2022-09-23T05:19:00;9.60;99.90
2999;DHT22;1509;51.964;7.628;2022-09-23T05:21:27;9.60;99.90
2999;DHT22;1509;51.964;7.628;2022-09-23T05:23:56;9.50;99.90
2999;DHT22;1509;51.964;7.628;2022-09-23T05:26:27;9.50;99.90
2999;DHT22;1509;51.964;7.628;2022-09-23T05:28:53;9.50;99.90
2999;DHT22;1509;51.964;7.628;2022-09-23T05:31:21;9.50;99.90
2999;DHT22;1509;51.964;7.628;2022-09-23T05:33:50;9.40;99.90
2999;DHT22;1509;51.964;7.628;2022-09-23T05:36:17;9.30;99.90
2999;DHT22;1509;51.964;7.628;2022-09-23T05:38:43;9.30;99.90
2999;DHT22;1509;51.964;7.628;2022-09-23T05:41:13;9.30;99.90
2999;DHT22;1509;51.964;7.628;2022-09-23T05:43:38;9.30;99.90
2999;DHT22;1509;51.964;7.628;2022-09-23T05:46:06;9.40;99.90
2999;DHT22;1509;51.964;7.628;2022-09-23T05:48:33;9.50;99.90
2999;DHT22;1509;51.964;7.628;2022-09-23T05:50:59;9.50;99.90
2999;DHT22;1509;51.964;7.628;2022-09-23T05:53:26;9.50;99.90
2999;DHT22;1509;51.964;7.628;2022-09-23T05:55:56;9.50;99.90
2999;DHT22;1509;51.964;7.628;2022-09-23T05:58:22;9.60;99.90
2999;DHT22;1509;51.964;7.628;2022-09-23T06:00:49;9.60;99.90
2999;DHT22;1509;51.964;7.628;2022-09-23T06:03:16;9.70;99.90
2999;DHT22;1509;51.964;7.628;2022-09-23T06:05:43;9.70;99.90
2999;DHT22;1509;51.964;7.628;2022-09-23T06:08:09;9.80;99.90
2999;DHT22;1509;51.964;7.628;2022-09-23T06:10:40;9.80;99.90
2999;DHT22;1509;51.964;7.628;2022-09-23T06:13:06;9.80;99.90
2999;DHT22;1509;51.964;7.628;2022-09-23T06:15:33;9.80;99.90
2999;DHT22;1509;51.964;7.628;2022-09-23T06:17:59;9.80;99.90
2999;DHT22;1509;51.964;7.628;2022-09-23T06:20:25;9.90;99.90
2999;DHT22;1509;51.964;7.628;2022-09-23T06:22:51;9.90;99.90
2999;DHT22;1509;51.964;7.628;2022-09-23T06:25:18;9.90;99.90
2999;DHT22;1509;51.964;7.628;2022-09-23T06:27:51;10.00;99.90
2999;DHT22;1509;51.964;7.628;2022-09-23T06:30:19;10.00;99.90
2999;DHT22;1509;51.964;7.628;2022-09-23T06:32:55;10.00;99.90
2999;DHT22;1509;51.964;7.628;2022-09-23T06:35:24;10.10;99.90
2999;DHT22;1509;51.964;7.628;2022-09-23T06:37:51;10.10;99.90
2999;DHT22;1509;51.964;7.628;2022-09-23T06:40:17;10.10;99.90
2999;DHT22;1509;51.964;7.628;2022-09-23T06:42:43;10.10;99.90
2999;DHT22;1509;51.964;7.628;2022-09-23T06:45:11;10.10;99.90
2999;DHT22;1509;51.964;7.628;2022-09-23T06:47:41;10.10;99.90
2999;DHT22;1509;51.964;7.628;2022-09-23T06:50:09;10.10;99.90
2999;DHT22;1509;51.964;7.628;2022-09-23T06:52:35;10.20;99.90
2999;DHT22;1509;51.964;7.628;2022-09-23T06:55:00;10.30;99.90
2999;DHT22;1509;51.964;7.628;2022-09-23T06:57:32;10.30;99.90
2999;DHT22;1509;51.964;7.628;2022-09-23T06:59:58;10.40;99.90
2999;DHT22;1509;51.964;7.628;2022-09-23T07:02:25;10.40;99.90
2999;DHT22;1509;51.964;7.628;2022-09-23T07:04:51;10.50;99.90
2999;DHT22;1509;51.964;7.628;2022-09-23T07:07:17;10.50;99.90
2999;DHT22;1509;51.964;7.628;2022-09-23T07:09:44;10.60;99.90
2999;DHT22;1509;51.964;7.628;2022-09-23T07:12:10;10.70;99.90
2999;DHT22;1509;51.964;7.628;2022-09-23T07:14:35;10.60;99.90
2999;DHT22;1509;51.964;7.628;2022-09-23T07:17:01;10.70;99.90
2999;DHT22;1509;51.964;7.628;2022-09-23T07:19:28;10.90;99.90
2999;DHT22;1509;51.964;7.628;2022-09-23T07:21:54;11.00;99.90
2999;DHT22;1509;51.964;7.628;2022-09-23T07:24:22;11.20;99.90
2999;DHT22;1509;51.964;7.628;2022-09-23T07:26:51;11.30;99.90
2999;DHT22;1509;51.964;7.628;2022-09-23T07:29:20;11.40;99.90
2999;DHT22;1509;51.964;7.628;2022-09-23T07:31:46;11.50;99.90
2999;DHT22;1509;51.964;7.628;2022-09-23T07:34:12;11.60;99.90
2999;DHT22;1509;51.964;7.628;2022-09-23T07:36:38;11.80;99.90
2999;DHT22;1509;51.964;7.628;2022-09-23T07:39:06;11.90;99.90
2999;DHT22;1509;51.964;7.628;2022-09-23T07:41:33;12.10;99.90
2999;DHT22;1509;51.964;7.628;2022-09-23T07:43:59;12.20;99.90
2999;DHT22;1509;51.964;7.628;2022-09-23T07:46:27;12.40;99.90
2999;DHT22;1509;51.964;7.628;2022-09-23T07:48:54;12.60;99.90
2999;DHT22;1509;51.964;7.628;2022-09-23T07:51:35;12.80;99.90
2999;DHT22;1509;51.964;7.628;2022-09-23T07:54:01;13.10;99.90
2999;DHT22;1509;51.964;7.628;2022-09-23T07:56:29;13.30;99.90
2999;DHT22;1509;51.964;7.628;2022-09-23T07:58:55;13.50;99.90
2999;DHT22;1509;51.964;7.628;2022-09-23T08:01:35;13.70;99.90
2999;DHT22;1509;51.964;7.628;2022-09-23T08:04:05;13.90;99.90
2999;DHT22;1509;51.964;7.628;2022-09-23T08:06:31;14.10;99.90
2999;DHT22;1509;51.964;7.628;2022-09-23T08:08:59;14.40;99.90
2999;DHT22;1509;51.964;7.628;2022-09-23T08:11:26;14.70;99.90
2999;DHT22;1509;51.964;7.628;2022-09-23T08:13:52;15.40;99.90
2999;DHT22;1509;51.964;7.628;2022-09-23T08:16:19;16.40;99.90
2999;DHT22;1509;51.964;7.628;2022-09-23T08:18:45;17.30;99.90
2999;DHT22;1509;51.964;7.628;2022-09-23T08:21:11;18.20;99.90
2999;DHT22;1509;51.964;7.628;2022-09-23T08:23:37;19.00;99.90
2999;DHT22;1509;51.964;7.628;2022-09-23T08:26:04;19.20;99.90
2999;DHT22;1509;51.964;7.628;2022-09-23T08:28:31;18.80;99.90
2999;DHT22;1509;51.964;7.628;2022-09-23T08:31:00;18.60;99.90
2999;DHT22;1509;51.964;7.628;2022-09-23T08:33:26;18.50;99.90
2999;DHT22;1509;51.964;7.628;2022-09-23T08:35:52;18.80;99.90
2999;DHT22;1509;51.964;7.628;2022-09-23T08:38:18;19.20;99.90
2999;DHT22;1509;51.964;7.628;2022-09-23T08:40:46;19.10;99.90
2999;DHT22;1509;51.964;7.628;2022-09-23T08:43:44;19.10;99.90
2999;DHT22;1509;51.964;7.628;2022-09-23T08:46:15;19.40;99.90
2999;DHT22;1509;51.964;7.628;2022-09-23T08:48:45;19.80;99.90
2999;DHT22;1509;51.964;7.628;2022-09-23T08:51:14;19.40;99.90
2999;DHT22;1509;51.964;7.628;2022-09-23T08:53:42;18.90;99.90
2999;DHT22;1509;51.964;7.628;2022-09-23T08:56:28;18.50;99.90
2999;DHT22;1509;51.964;7.628;2022-09-23T09:04:08;16.90;99.90
2999;DHT22;1509;51.964;7.628;2022-09-23T09:10:04;16.30;99.90
2999;DHT22;1509;51.964;7.628;2022-09-23T09:12:47;16.30;99.90
2999;DHT22;1509;51.964;7.628;2022-09-23T09:18:03;16.40;99.90
2999;DHT22;1509;51.964;7.628;2022-09-23T09:21:01;16.30;99.90
2999;DHT22;1509;51.964;7.628;2022-09-23T09:23:56;16.30;99.90
2999;DHT22;1509;51.964;7.628;2022-09-23T09:26:25;16.30;99.90
2999;DHT22;1509;51.964;7.628;2022-09-23T09:31:32;16.30;99.90
2999;DHT22;1509;51.964;7.628;2022-09-23T09:34:00;16.50;99.90
2999;DHT22;1509;51.964;7.628;2022-09-23T09:36:37;16.60;99.90
2999;DHT22;1509;51.964;7.628;2022-09-23T09:39:04;16.60;99.90
2999;DHT22;1509;51.964;7.628;2022-09-23T09:41:31;16.60;99.90
2999;DHT22;1509;51.964;7.628;2022-09-23T09:43:59;16.70;99.90
2999;DHT22;1509;51.964;7.628;2022-09-23T09:49:06;16.80;99.90
2999;DHT22;1509;51.964;7.628;2022-09-23T09:51:35;17.30;99.90
2999;DHT22;1509;51.964;7.628;2022-09-23T09:54:16;17.70;99.90
2999;DHT22;1509;51.964;7.628;2022-09-23T09:56:43;18.10;99.90
2999;DHT22;1509;51.964;7.628;2022-09-23T09:59:10;18.30;99.90
2999;DHT22;1509;51.964;7.628;2022-09-23T10:01:39;18.60;99.90
2999;DHT22;1509;51.964;7.628;2022-09-23T10:07:06;18.90;99.90
2999;DHT22;1509;51.964;7.628;2022-09-23T10:09:35;18.90;99.90
2999;DHT22;1509;51.964;7.628;2022-09-23T10:12:10;19.10;99.90
2999;DHT22;1509;51.964;7.628;2022-09-23T10:14:37;18.80;99.90
2999;DHT22;1509;51.964;7.628;2022-09-23T10:17:05;19.10;99.90
2999;DHT22;1509;51.964;7.628;2022-09-23T10:19:31;19.20;99.90
2999;DHT22;1509;51.964;7.628;2022-09-23T10:22:02;19.00;99.90
2999;DHT22;1509;51.964;7.628;2022-09-23T10:24:32;18.60;99.90
2999;DHT22;1509;51.964;7.628;2022-09-23T10:27:08;18.30;99.90
2999;DHT22;1509;51.964;7.628;2022-09-23T10:37:45;18.50;99.90
2999;DHT22;1509;51.964;7.628;2022-09-23T10:46:02;18.20;99.90
2999;DHT22;1509;51.964;7.628;2022-09-23T10:51:30;17.90;99.90
2999;DHT22;1509;51.964;7.628;2022-09-23T10:57:45;18.00;99.90
2999;DHT22;1509;51.964;7.628;2022-09-23T11:05:59;17.70;99.90
2999;DHT22;1509;51.964;7.628;2022-09-23T11:11:36;17.60;99.90
2999;DHT22;1509;51.964;7.628;2022-09-23T11:14:28;17.60;99.90
2999;DHT22;1509;51.964;7.628;2022-09-23T11:17:13;17.60;99.90
2999;DHT22;1509;51.964;7.628;2022-09-23T11:25:55;17.60;99.90
2999;DHT22;1509;51.964;7.628;2022-09-23T11:28:36;17.70;99.90
2999;DHT22;1509;51.964;7.628;2022-09-23T11:33:56;17.90;99.90
2999;DHT22;1509;51.964;7.628;2022-09-23T11:36:31;18.30;99.90
2999;DHT22;1509;51.964;7.628;2022-09-23T11:39:01;18.80;99.90
2999;DHT22;1509;51.964;7.628;2022-09-23T11:41:37;19.30;99.90
2999;DHT22;1509;51.964;7.628;2022-09-23T11:44:27;19.50;99.90
2999;DHT22;1509;51.964;7.628;2022-09-23T11:46:58;19.90;99.90
2999;DHT22;1509;51.964;7.628;2022-09-23T11:54:33;20.70;99.90
2999;DHT22;1509;51.964;7.628;2022-09-23T11:57:05;21.00;99.90
2999;DHT22;1509;51.964;7.628;2022-09-23T11:59:44;21.60;99.90
2999;DHT22;1509;51.964;7.628;2022-09-23T12:04:46;22.50;99.90
2999;DHT22;1509;51.964;7.628;2022-09-23T12:07:21;22.60;99.90
2999;DHT22;1509;51.964;7.628;2022-09-23T12:10:02;22.00;99.90
2999;DHT22;1509;51.964;7.628;2022-09-23T12:15:29;21.00;99.90
2999;DHT22;1509;51.964;7.628;2022-09-23T12:21:19;20.80;99.90
2999;DHT22;1509;51.964;7.628;2022-09-23T12:26:38;19.70;99.90
2999;DHT22;1509;51.964;7.628;2022-09-23T12:29:06;19.60;99.90
2999;DHT22;1509;51.964;7.628;2022-09-23T12:31:36;19.70;99.90
2999;DHT22;1509;51.964;7.628;2022-09-23T12:34:19;19.90;99.90
2999;DHT22;1509;51.964;7.628;2022-09-23T12:36:46;19.90;99.90
2999;DHT22;1509;51.964;7.628;2022-09-23T12:39:21;20.10;99.90
2999;DHT22;1509;51.964;7.628;2022-09-23T12:41:55;19.90;99.90
2999;DHT22;1509;51.964;7.628;2022-09-23T12:44:37;19.20;99.90
2999;DHT22;1509;51.964;7.628;2022-09-23T12:49:40;18.90;99.90
2999;DHT22;1509;51.964;7.628;2022-09-23T12:54:43;18.60;99.90
2999;DHT22;1509;51.964;7.628;2022-09-23T13:02:27;18.70;99.90
2999;DHT22;1509;51.964;7.628;2022-09-23T13:05:12;18.70;99.90
2999;DHT22;1509;51.964;7.628;2022-09-23T13:08:10;19.00;99.90
2999;DHT22;1509;51.964;7.628;2022-09-23T13:10:58;19.10;99.90
2999;DHT22;1509;51.964;7.628;2022-09-23T13:13:30;19.10;99.90
2999;DHT22;1509;51.964;7.628;2022-09-23T13:16:25;19.20;99.90
2999;DHT22;1509;51.964;7.628;2022-09-23T13:24:16;19.40;99.90
2999;DHT22;1509;51.964;7.628;2022-09-23T13:29:30;19.30;99.90
2999;DHT22;1509;51.964;7.628;2022-09-23T13:32:00;19.30;99.90
2999;DHT22;1509;51.964;7.628;2022-09-23T13:34:32;19.30;99.90
2999;DHT22;1509;51.964;7.628;2022-09-23T13:37:12;19.30;99.90
2999;DHT22;1509;51.964;7.628;2022-09-23T13:39:41;19.30;99.90
2999;DHT22;1509;51.964;7.628;2022-09-23T13:42:17;19.30;99.90
2999;DHT22;1509;51.964;7.628;2022-09-23T13:44:45;19.40;99.90
2999;DHT22;1509;51.964;7.628;2022-09-23T13:47:12;19.50;99.90
2999;DHT22;1509;51.964;7.628;2022-09-23T13:49:38;19.50;99.90
2999;DHT22;1509;51.964;7.628;2022-09-23T13:52:23;19.50;99.90
2999;DHT22;1509;51.964;7.628;2022-09-23T13:54:50;19.60;99.90
2999;DHT22;1509;51.964;7.628;2022-09-23T13:57:28;19.70;99.90
2999;DHT22;1509;51.964;7.628;2022-09-23T14:00:29;19.70;99.90
2999;DHT22;1509;51.964;7.628;2022-09-23T14:02:56;19.70;99.90
2999;DHT22;1509;51.964;7.628;2022-09-23T14:05:24;19.70;99.90
2999;DHT22;1509;51.964;7.628;2022-09-23T14:07:51;19.60;99.90
2999;DHT22;1509;51.964;7.628;2022-09-23T14:10:20;19.70;99.90
2999;DHT22;1509;51.964;7.628;2022-09-23T14:12:48;19.60;99.90
2999;DHT22;1509;51.964;7.628;2022-09-23T14:15:15;19.70;99.90
2999;DHT22;1509;51.964;7.628;2022-09-23T14:17:57;19.60;99.90
2999;DHT22;1509;51.964;7.628;2022-09-23T14:20:24;19.60;99.90
2999;DHT22;1509;51.964;7.628;2022-09-23T14:23:10;19.50;99.90
2999;DHT22;1509;51.964;7.628;2022-09-23T14:25:36;19.60;99.90
2999;DHT22;1509;51.964;7.628;2022-09-23T14:28:02;19.50;99.90
2999;DHT22;1509;51.964;7.628;2022-09-23T14:30:29;19.40;99.90
2999;DHT22;1509;51.964;7.628;2022-09-23T14:32:55;19.40;99.90
2999;DHT22;1509;51.964;7.628;2022-09-23T14:35:25;19.30;99.90
2999;DHT22;1509;51.964;7.628;2022-09-23T14:37:55;19.30;99.90
2999;DHT22;1509;51.964;7.628;2022-09-23T14:40:54;19.20;99.90
2999;DHT22;1509;51.964;7.628;2022-09-23T14:43:49;19.10;99.90
2999;DHT22;1509;51.964;7.628;2022-09-23T14:46:18;19.00;99.90
2999;DHT22;1509;51.964;7.628;2022-09-23T14:49:05;19.10;99.90
2999;DHT22;1509;51.964;7.628;2022-09-23T14:51:47;19.10;99.90
2999;DHT22;1509;51.964;7.628;2022-09-23T15:02:36;19.00;99.90
2999;DHT22;1509;51.964;7.628;2022-09-23T15:05:12;19.00;99.90
2999;DHT22;1509;51.964;7.628;2022-09-23T15:07:42;19.00;99.90
2999;DHT22;1509;51.964;7.628;2022-09-23T15:10:18;19.00;99.90
2999;DHT22;1509;51.964;7.628;2022-09-23T15:12:48;19.10;99.90
2999;DHT22;1509;51.964;7.628;2022-09-23T15:15:16;19.10;99.90
2999;DHT22;1509;51.964;7.628;2022-09-23T15:17:43;19.10;99.90
2999;DHT22;1509;51.964;7.628;2022-09-23T15:22:49;19.00;99.90
2999;DHT22;1509;51.964;7.628;2022-09-23T15:25:31;19.00;99.90
2999;DHT22;1509;51.964;7.628;2022-09-23T15:30:23;18.90;99.90
2999;DHT22;1509;51.964;7.628;2022-09-23T15:32:49;18.90;99.90
2999;DHT22;1509;51.964;7.628;2022-09-23T15:35:16;18.90;99.90
2999;DHT22;1509;51.964;7.628;2022-09-23T15:37:44;19.00;99.90
2999;DHT22;1509;51.964;7.628;2022-09-23T15:40:34;19.00;99.90
2999;DHT22;1509;51.964;7.628;2022-09-23T15:43:18;18.90;99.90
2999;DHT22;1509;51.964;7.628;2022-09-23T15:45:47;19.00;99.90
2999;DHT22;1509;51.964;7.628;2022-09-23T15:48:14;18.90;99.90
2999;DHT22;1509;51.964;7.628;2022-09-23T15:50:41;18.80;99.90
2999;DHT22;1509;51.964;7.628;2022-09-23T15:53:17;18.80;99.90
2999;DHT22;1509;51.964;7.628;2022-09-23T15:55:43;18.80;99.90
2999;DHT22;1509;51.964;7.628;2022-09-23T15:58:10;18.70;99.90
2999;DHT22;1509;51.964;7.628;2022-09-23T16:00:36;18.60;99.90
2999;DHT22;1509;51.964;7.628;2022-09-23T16:03:02;18.60;99.90
2999;DHT22;1509;51.964;7.628;2022-09-23T16:05:34;18.50;99.90
2999;DHT22;1509;51.964;7.628;2022-09-23T16:08:06;18.30;99.90
2999;DHT22;1509;51.964;7.628;2022-09-23T16:10:33;18.30;99.90
2999;DHT22;1509;51.964;7.628;2022-09-23T16:13:01;18.30;99.90
2999;DHT22;1509;51.964;7.628;2022-09-23T16:15:31;18.30;99.90
2999;DHT22;1509;51.964;7.628;2022-09-23T16:17:58;18.30;99.90
2999;DHT22;1509;51.964;7.628;2022-09-23T16:20:25;18.20;99.90
2999;DHT22;1509;51.964;7.628;2022-09-23T16:23:00;18.30;99.90
2999;DHT22;1509;51.964;7.628;2022-09-23T16:25:27;18.30;99.90
2999;DHT22;1509;51.964;7.628;2022-09-23T16:27:54;18.20;99.90
2999;DHT22;1509;51.964;7.628;2022-09-23T16:30:25;18.20;99.90
2999;DHT22;1509;51.964;7.628;2022-09-23T16:32:51;18.10;99.90
2999;DHT22;1509;51.964;7.628;2022-09-23T16:35:21;18.10;99.90
2999;DHT22;1509;51.964;7.628;2022-09-23T16:37:48;18.10;99.90
2999;DHT22;1509;51.964;7.628;2022-09-23T16:40:16;18.00;99.90
2999;DHT22;1509;51.964;7.628;2022-09-23T16:42:45;18.00;99.90
2999;DHT22;1509;51.964;7.628;2022-09-23T16:45:16;18.00;99.90
2999;DHT22;1509;51.964;7.628;2022-09-23T16:47:47;18.00;99.90
2999;DHT22;1509;51.964;7.628;2022-09-23T16:50:15;17.90;99.90
2999;DHT22;1509;51.964;7.628;2022-09-23T16:52:42;17.90;99.90
2999;DHT22;1509;51.964;7.628;2022-09-23T16:55:09;17.80;99.90
2999;DHT22;1509;51.964;7.628;2022-09-23T16:57:35;17.80;99.90
2999;DHT22;1509;51.964;7.628;2022-09-23T17:00:04;17.80;99.90
2999;DHT22;1509;51.964;7.628;2022-09-23T17:02:54;17.70;99.90
2999;DHT22;1509;51.964;7.628;2022-09-23T17:05:38;17.70;99.90
2999;DHT22;1509;51.964;7.628;2022-09-23T17:08:04;17.70;99.90
2999;DHT22;1509;51.964;7.628;2022-09-23T17:10:30;17.50;99.90
2999;DHT22;1509;51.964;7.628;2022-09-23T17:12:55;17.50;99.90
2999;DHT22;1509;51.964;7.628;2022-09-23T17:15:23;17.50;99.90
2999;DHT22;1509;51.964;7.628;2022-09-23T17:17:48;17.40;99.90
2999;DHT22;1509;51.964;7.628;2022-09-23T17:20:14;17.50;99.90
2999;DHT22;1509;51.964;7.628;2022-09-23T17:22:40;17.40;99.90
2999;DHT22;1509;51.964;7.628;2022-09-23T17:25:07;17.40;99.90
2999;DHT22;1509;51.964;7.628;2022-09-23T17:27:33;17.30;99.90
2999;DHT22;1509;51.964;7.628;2022-09-23T17:29:59;17.30;99.90
2999;DHT22;1509;51.964;7.628;2022-09-23T17:32:25;17.30;99.90
2999;DHT22;1509;51.964;7.628;2022-09-23T17:34:51;17.30;99.90
2999;DHT22;1509;51.964;7.628;2022-09-23T17:37:17;17.20;99.90
2999;DHT22;1509;51.964;7.628;2022-09-23T17:39:43;17.10;99.90
2999;DHT22;1509;51.964;7.628;2022-09-23T17:42:09;17.20;99.90
2999;DHT22;1509;51.964;7.628;2022-09-23T17:44:34;17.20;99.90
2999;DHT22;1509;51.964;7.628;2022-09-23T17:47:01;17.20;99.90
2999;DHT22;1509;51.964;7.628;2022-09-23T17:49:28;17.20;99.90
2999;DHT22;1509;51.964;7.628;2022-09-23T17:52:01;17.00;99.90
2999;DHT22;1509;51.964;7.628;2022-09-23T17:54:29;16.80;99.90
2999;DHT22;1509;51.964;7.628;2022-09-23T17:56:57;16.70;99.90
2999;DHT22;1509;51.964;7.628;2022-09-23T17:59:23;16.60;99.90
2999;DHT22;1509;51.964;7.628;2022-09-23T18:01:49;16.40;99.90
2999;DHT22;1509;51.964;7.628;2022-09-23T18:04:14;16.40;99.90
2999;DHT22;1509;51.964;7.628;2022-09-23T18:06:40;16.20;99.90
2999;DHT22;1509;51.964;7.628;2022-09-23T18:09:06;16.20;99.90
2999;DHT22;1509;51.964;7.628;2022-09-23T18:11:38;16.10;99.90
2999;DHT22;1509;51.964;7.628;2022-09-23T18:14:26;15.90;99.90
2999;DHT22;1509;51.964;7.628;2022-09-23T18:16:53;15.90;99.90
2999;DHT22;1509;51.964;7.628;2022-09-23T18:19:21;15.80;99.90
2999;DHT22;1509;51.964;7.628;2022-09-23T18:21:49;15.90;99.90
2999;DHT22;1509;51.964;7.628;2022-09-23T18:24:16;15.80;99.90
2999;DHT22;1509;51.964;7.628;2022-09-23T18:26:43;15.80;99.90
2999;DHT22;1509;51.964;7.628;2022-09-23T18:29:09;15.80;99.90
2999;DHT22;1509;51.964;7.628;2022-09-23T18:31:36;15.90;99.90
2999;DHT22;1509;51.964;7.628;2022-09-23T18:34:09;15.80;99.90
2999;DHT22;1509;51.964;7.628;2022-09-23T18:36:36;15.90;99.90
2999;DHT22;1509;51.964;7.628;2022-09-23T18:39:02;15.90;99.90
2999;DHT22;1509;51.964;7.628;2022-09-23T18:41:28;15.90;99.90
2999;DHT22;1509;51.964;7.628;2022-09-23T18:43:54;16.00;99.90
2999;DHT22;1509;51.964;7.628;2022-09-23T18:46:22;16.10;99.90
2999;DHT22;1509;51.964;7.628;2022-09-23T18:48:49;16.10;99.90
2999;DHT22;1509;51.964;7.628;2022-09-23T18:51:34;16.10;99.90
2999;DHT22;1509;51.964;7.628;2022-09-23T18:54:04;16.00;99.90
2999;DHT22;1509;51.964;7.628;2022-09-23T18:56:49;16.10;99.90